Carnival Glory — 3FPS9 — position and weather

sailwx.info

Track history (hours):
 
Tides and Currents Weather Stations Pressure Air Temp Water Temp Dewpoint Dewpoint Depression Visibility Wind Speed Wind Dir Waves Ship Positions

Carnival Glory

Operator: Carnival Cruise Lines

Last reported at 2020-Jan-19 16:28 UTC. Time now 2020-Jan-19 16:57 UTC.
Position N 29°56' W 090°04'.

Type: Passenger vessel. MMSI: 357659000.

Date/timePositionNaut miles runAvg speedWind from/ knotsBaromVisibWave heightAir tempDewpointWater temp
2020-Jan-19 16:28N 29°56' W 090°04'0 0.0
2020-Jan-19 12:58N 29°56' W 090°04'8 4.2
2020-Jan-19 10:59N 29°54' W 089°55'4 7.5
2020-Jan-19 10:30N 29°53' W 089°58'611.6
2020-Jan-19 10:00N 29°47' W 090°01'56817.7
2020-Jan-18 02:00N 20°47' W 086°50'1818.4
2020-Jan-18 01:00N 20°30' W 086°59'2 1.7
2020-Jan-17 23:57N 20°29' W 086°59'0 0.0
2020-Jan-17 20:00N 20°29' W 086°59'0 0.0
2020-Jan-17 18:30N 20°29' W 086°59'0 0.0
2020-Jan-17 17:30N 20°29' W 086°59'0 0.0
2020-Jan-17 16:29N 20°29' W 086°59'6 3.8
2020-Jan-17 15:00N 20°34' W 086°57'20 9.8
2020-Jan-17 13:00N 20°36' W 086°36'2928.7 070 / 281021.8 5.4 20.016.728.0
2020-Jan-17 12:00N 20°30' W 086°06'3130.6 070 / 281021.8 5.4 20.016.728.0
2020-Jan-17 11:00N 20°18' W 085°36'24514.0 070 / 281021.8 5.4 20.016.728.0
2020-Jan-16 17:30N 19°18' W 081°23'0 0.1
2020-Jan-16 17:00N 19°18' W 081°23'0 0.0
2020-Jan-16 13:58N 19°18' W 081°23'0 0.0
2020-Jan-16 12:58N 19°18' W 081°23'1 1.2
2020-Jan-16 12:30N 19°18' W 081°24'4 8.5
2020-Jan-16 12:00N 19°14' W 081°25'1616.3
2020-Jan-16 11:00N 19°09' W 081°08'212 4.7
2020-Jan-14 14:00N 21°12' W 084°12'21216.3 080 / 271024.9 5.4 20.016.720.0
2020-Jan-14 01:00N 24°06' W 086°24'2121.1 070 / 231026.9 5.4 21.014.219.0
2020-Jan-14 00:00N 24°24' W 086°36'21517.9 070 / 231026.9 5.4 21.014.219.0
2020-Jan-13 12:00N 27°30' W 088°36'1313.1 140 / 151026.8 5.4 15.011.319.0
2020-Jan-13 11:00N 27°42' W 088°42'2928.8 140 / 151026.8 5.4 15.011.319.0
2020-Jan-13 10:00N 28°06' W 089°00'9615.0 140 / 151026.8 5.4 15.011.319.0
2020-Jan-13 03:36N 29°33' W 089°46'115.1
2020-Jan-13 03:30N 29°34' W 089°47'1913.0
2020-Jan-13 02:00N 29°50' W 089°60'510.4
2020-Jan-13 01:30N 29°52' W 089°54'9 9.1
2020-Jan-13 00:30N 29°56' W 090°04'0 0.0
2020-Jan-12 20:28N 29°56' W 090°04'0 0.0
2020-Jan-12 18:28N 29°56' W 090°04'0 0.0
2020-Jan-12 17:28N 29°56' W 090°04'0 0.0
2020-Jan-12 16:28N 29°56' W 090°04'0 0.0
2020-Jan-12 15:58N 29°56' W 090°04'0 0.0
2020-Jan-12 15:28N 29°56' W 090°04'0 0.0
2020-Jan-12 12:28N 29°56' W 090°04'0 0.0
2020-Jan-12 11:28N 29°56' W 090°04'0 0.0
2020-Jan-12 10:29N 29°56' W 090°04'9 5.8
2020-Jan-12 09:00N 29°54' W 089°54'4 8.2
2020-Jan-12 08:30N 29°52' W 089°59'1710.5
2020-Jan-12 06:52N 29°36' W 089°51'59114.0
2020-Jan-10 12:30N 25°34' W 079°42'18 8.8
2020-Jan-10 10:30N 25°51' W 079°38'3 1.5
2020-Jan-10 08:30N 25°51' W 079°35'816.1
2020-Jan-10 08:00N 25°58' W 079°31'917.4
2020-Jan-10 07:30N 26°04' W 079°23'917.5
2020-Jan-10 07:00N 26°09' W 079°15'  
Track history (hours):
 
Tides and Currents Weather Stations Pressure Air Temp Water Temp Dewpoint Dewpoint Depression Visibility Wind Speed Wind Dir Waves Ship Positions

Carnival Glory

Operator: Carnival Cruise Lines

Last reported at 2020-Jan-19 16:28 UTC. Time now 2020-Jan-19 16:57 UTC.
Position N 29°56' W 090°04'.

Type: Passenger vessel. MMSI: 357659000.

Date/timePositionNaut miles runAvg speedWind from/ knotsBaromVisibWave heightAir tempDewpointWater temp
2020-Jan-19 16:28N 29°56' W 090°04'0 0.0
2020-Jan-19 12:58N 29°56' W 090°04'8 4.2
2020-Jan-19 10:59N 29°54' W 089°55'4 7.5
2020-Jan-19 10:30N 29°53' W 089°58'611.6
2020-Jan-19 10:00N 29°47' W 090°01'56817.7
2020-Jan-18 02:00N 20°47' W 086°50'1818.4
2020-Jan-18 01:00N 20°30' W 086°59'2 1.7
2020-Jan-17 23:57N 20°29' W 086°59'0 0.0
2020-Jan-17 20:00N 20°29' W 086°59'0 0.0
2020-Jan-17 18:30N 20°29' W 086°59'0 0.0
2020-Jan-17 17:30N 20°29' W 086°59'0 0.0
2020-Jan-17 16:29N 20°29' W 086°59'6 3.8
2020-Jan-17 15:00N 20°34' W 086°57'20 9.8
2020-Jan-17 13:00N 20°36' W 086°36'2928.7 070 / 281021.8 5.4 20.016.728.0
2020-Jan-17 12:00N 20°30' W 086°06'3130.6 070 / 281021.8 5.4 20.016.728.0
2020-Jan-17 11:00N 20°18' W 085°36'24514.0 070 / 281021.8 5.4 20.016.728.0
2020-Jan-16 17:30N 19°18' W 081°23'0 0.1
2020-Jan-16 17:00N 19°18' W 081°23'0 0.0
2020-Jan-16 13:58N 19°18' W 081°23'0 0.0
2020-Jan-16 12:58N 19°18' W 081°23'1 1.2
2020-Jan-16 12:30N 19°18' W 081°24'4 8.5
2020-Jan-16 12:00N 19°14' W 081°25'1616.3
2020-Jan-16 11:00N 19°09' W 081°08'212 4.7
2020-Jan-14 14:00N 21°12' W 084°12'21216.3 080 / 271024.9 5.4 20.016.720.0
2020-Jan-14 01:00N 24°06' W 086°24'2121.1 070 / 231026.9 5.4 21.014.219.0
2020-Jan-14 00:00N 24°24' W 086°36'21517.9 070 / 231026.9 5.4 21.014.219.0
2020-Jan-13 12:00N 27°30' W 088°36'1313.1 140 / 151026.8 5.4 15.011.319.0
2020-Jan-13 11:00N 27°42' W 088°42'2928.8 140 / 151026.8 5.4 15.011.319.0
2020-Jan-13 10:00N 28°06' W 089°00'9615.0 140 / 151026.8 5.4 15.011.319.0
2020-Jan-13 03:36N 29°33' W 089°46'115.1
2020-Jan-13 03:30N 29°34' W 089°47'1913.0
2020-Jan-13 02:00N 29°50' W 089°60'510.4
2020-Jan-13 01:30N 29°52' W 089°54'9 9.1
2020-Jan-13 00:30N 29°56' W 090°04'0 0.0
2020-Jan-12 20:28N 29°56' W 090°04'0 0.0
2020-Jan-12 18:28N 29°56' W 090°04'0 0.0
2020-Jan-12 17:28N 29°56' W 090°04'0 0.0
2020-Jan-12 16:28N 29°56' W 090°04'0 0.0
2020-Jan-12 15:58N 29°56' W 090°04'0 0.0
2020-Jan-12 15:28N 29°56' W 090°04'0 0.0
2020-Jan-12 12:28N 29°56' W 090°04'0 0.0
2020-Jan-12 11:28N 29°56' W 090°04'0 0.0
2020-Jan-12 10:29N 29°56' W 090°04'9 5.8
2020-Jan-12 09:00N 29°54' W 089°54'4 8.2
2020-Jan-12 08:30N 29°52' W 089°59'1710.5
2020-Jan-12 06:52N 29°36' W 089°51'59114.0
2020-Jan-10 12:30N 25°34' W 079°42'18 8.8
2020-Jan-10 10:30N 25°51' W 079°38'3 1.5
2020-Jan-10 08:30N 25°51' W 079°35'816.1
2020-Jan-10 08:00N 25°58' W 079°31'917.4
2020-Jan-10 07:30N 26°04' W 079°23'917.5
2020-Jan-10 07:00N 26°09' W 079°15'  

Dump ship's entire track history